createdAt,value
2022-12-29T00:01:51.234Z,-2.38
2022-12-29T00:04:45.317Z,-2.28
2022-12-29T00:07:29.317Z,-2.36
2022-12-29T00:10:10.120Z,-2.31
2022-12-29T00:13:01.719Z,-2.50
2022-12-29T00:16:02.228Z,-2.48
2022-12-29T00:18:43.695Z,-2.60
2022-12-29T00:21:42.297Z,-2.63
2022-12-29T00:24:29.705Z,-2.51
2022-12-29T00:27:35.204Z,-2.49
2022-12-29T00:30:43.925Z,-2.38
2022-12-29T00:33:45.925Z,-2.12
2022-12-29T00:36:36.212Z,-2.05
2022-12-29T00:39:34.334Z,-2.29
2022-12-29T00:42:39.296Z,-2.47
2022-12-29T00:45:23.455Z,-2.55
2022-12-29T00:48:42.149Z,-2.66
2022-12-29T00:51:23.942Z,-2.66
2022-12-29T00:54:10.560Z,-2.74
2022-12-29T00:56:50.169Z,-2.76
2022-12-29T00:59:36.501Z,-2.79
2022-12-29T01:02:15.015Z,-2.51
2022-12-29T01:04:58.210Z,-2.67
2022-12-29T01:07:36.018Z,-2.76
2022-12-29T01:10:21.867Z,-2.74
2022-12-29T01:12:57.057Z,-2.77
2022-12-29T01:15:44.671Z,-2.65
2022-12-29T01:18:27.157Z,-2.67
2022-12-29T01:21:34.142Z,-2.53
2022-12-29T01:24:15.240Z,-2.36
2022-12-29T01:26:55.667Z,-2.22
2022-12-29T01:29:47.214Z,-2.14
2022-12-29T01:32:26.704Z,-2.04
2022-12-29T01:35:01.824Z,-1.97
2022-12-29T01:37:40.030Z,-1.92
2022-12-29T01:40:21.749Z,-1.93
2022-12-29T01:43:07.591Z,-1.86
2022-12-29T01:46:07.565Z,-1.79
2022-12-29T01:48:52.369Z,-1.73
2022-12-29T01:51:26.245Z,-1.92
2022-12-29T01:54:14.798Z,-2.02
2022-12-29T01:56:53.843Z,-1.98
2022-12-29T01:59:51.846Z,-1.99
2022-12-29T02:02:43.145Z,-1.88
2022-12-29T02:05:38.732Z,-1.84
2022-12-29T02:08:18.524Z,-1.86
2022-12-29T02:11:03.066Z,-1.92
2022-12-29T02:13:49.316Z,-2.09
2022-12-29T02:16:50.299Z,-2.40
2022-12-29T02:19:54.521Z,-2.51
2022-12-29T02:22:45.743Z,-2.53
2022-12-29T02:25:57.137Z,-2.47
2022-12-29T02:28:38.282Z,-2.48
2022-12-29T02:31:36.500Z,-2.36
2022-12-29T02:34:37.635Z,-2.26
2022-12-29T02:37:34.290Z,-2.14
2022-12-29T02:40:45.101Z,-2.16
2022-12-29T02:43:43.551Z,-2.20
2022-12-29T02:46:36.848Z,-2.08
2022-12-29T02:49:38.095Z,-2.08
2022-12-29T02:52:45.701Z,-2.05
2022-12-29T02:55:28.616Z,-2.00
2022-12-29T02:58:28.548Z,-1.84
2022-12-29T03:01:15.299Z,-1.92
2022-12-29T03:04:44.003Z,-1.96
2022-12-29T03:07:28.444Z,-2.09
2022-12-29T03:10:52.569Z,-2.14
2022-12-29T03:14:10.196Z,-2.22
2022-12-29T03:16:54.018Z,-2.27
2022-12-29T03:19:33.741Z,-2.31
2022-12-29T03:22:42.683Z,-2.25
2022-12-29T03:25:33.997Z,-2.24
2022-12-29T03:28:26.675Z,-2.16
2022-12-29T03:31:17.262Z,-2.15
2022-12-29T03:33:57.635Z,-2.29
2022-12-29T03:36:53.455Z,-2.48
2022-12-29T03:39:43.781Z,-2.49
2022-12-29T03:42:30.703Z,-2.58
2022-12-29T03:45:13.079Z,-2.57
2022-12-29T03:48:01.213Z,-2.53
2022-12-29T03:50:39.518Z,-2.42
2022-12-29T03:53:22.831Z,-2.33
2022-12-29T03:56:10.020Z,-2.37
2022-12-29T03:58:53.705Z,-2.45
2022-12-29T04:01:39.400Z,-2.41
2022-12-29T04:04:25.407Z,-2.41
2022-12-29T04:07:03.130Z,-2.27
2022-12-29T04:09:50.548Z,-2.15
2022-12-29T04:12:48.616Z,-2.11
2022-12-29T04:15:25.416Z,-2.07
2022-12-29T04:18:08.480Z,-2.13
2022-12-29T04:21:07.677Z,-2.08
2022-12-29T04:23:53.795Z,-2.06
2022-12-29T04:26:40.218Z,-2.12
2022-12-29T04:29:34.529Z,-2.10
2022-12-29T04:32:49.656Z,-2.24
2022-12-29T04:35:31.873Z,-2.15
2022-12-29T04:38:10.848Z,-2.17
2022-12-29T04:40:48.975Z,-2.16
2022-12-29T04:43:27.686Z,-2.17
2022-12-29T04:46:22.987Z,-2.05
2022-12-29T04:49:20.985Z,-2.12
2022-12-29T04:52:14.396Z,-2.05
2022-12-29T04:54:58.911Z,-2.03
2022-12-29T04:57:45.957Z,-1.97
2022-12-29T05:00:30.620Z,-2.06
2022-12-29T05:03:14.764Z,-2.10
2022-12-29T05:05:52.744Z,-2.05
2022-12-29T05:08:32.707Z,-2.08
2022-12-29T05:11:19.697Z,-2.02
2022-12-29T05:13:58.960Z,-2.03
2022-12-29T05:16:40.307Z,-2.00
2022-12-29T05:19:20.682Z,-2.00
2022-12-29T05:21:56.860Z,-1.93
2022-12-29T05:24:50.641Z,-2.03
2022-12-29T05:27:35.410Z,-2.06
2022-12-29T05:30:46.340Z,-1.87
2022-12-29T05:33:27.331Z,-1.83
2022-12-29T05:36:00.219Z,-1.82
2022-12-29T05:38:41.781Z,-1.82
2022-12-29T05:41:28.154Z,-1.95
2022-12-29T05:44:30.824Z,-2.08
2022-12-29T05:47:32.665Z,-2.13
2022-12-29T05:50:25.849Z,-2.19
2022-12-29T05:53:39.463Z,-2.13
2022-12-29T05:56:30.132Z,-2.40
2022-12-29T05:59:09.828Z,-2.27
2022-12-29T06:01:49.817Z,-2.18
2022-12-29T06:04:39.240Z,-2.35
2022-12-29T06:07:21.774Z,-2.47
2022-12-29T06:10:07.931Z,-2.41
2022-12-29T06:13:01.556Z,-2.35
2022-12-29T06:15:40.062Z,-2.31
2022-12-29T06:18:19.795Z,-2.31
2022-12-29T06:20:53.722Z,-2.38
2022-12-29T06:23:34.696Z,-2.31
2022-12-29T06:26:24.881Z,-2.29
2022-12-29T06:29:08.417Z,-2.24
2022-12-29T06:31:47.703Z,-2.23
2022-12-29T06:34:31.577Z,-2.32
2022-12-29T06:37:04.495Z,-2.36
2022-12-29T06:39:52.341Z,-2.34
2022-12-29T06:42:47.399Z,-2.29
2022-12-29T06:46:07.819Z,-2.33
2022-12-29T06:48:51.993Z,-2.15
2022-12-29T06:51:38.645Z,-2.17
2022-12-29T06:54:19.346Z,-2.24
2022-12-29T06:57:10.523Z,-2.26
2022-12-29T07:00:05.983Z,-2.24
2022-12-29T07:03:01.156Z,-2.24
2022-12-29T07:05:37.754Z,-2.21
2022-12-29T07:08:13.834Z,-2.20
2022-12-29T07:10:52.941Z,-2.19
2022-12-29T07:13:35.973Z,-2.20
2022-12-29T07:16:28.440Z,-2.14
2022-12-29T07:19:12.898Z,-2.02
2022-12-29T07:21:49.615Z,-1.96
2022-12-29T07:24:26.773Z,-1.92
2022-12-29T07:27:14.908Z,-1.86
2022-12-29T07:29:59.621Z,-1.82
2022-12-29T07:32:42.298Z,-1.80
2022-12-29T07:35:30.722Z,-1.75
2022-12-29T07:38:22.688Z,-1.66
2022-12-29T07:41:08.204Z,-1.67
2022-12-29T07:43:59.003Z,-1.49
2022-12-29T07:47:04.585Z,-1.50
2022-12-29T07:49:50.129Z,-1.46
2022-12-29T07:52:30.454Z,-1.57
2022-12-29T07:55:24.191Z,-1.47
2022-12-29T07:58:01.708Z,-1.40
2022-12-29T08:00:45.535Z,-1.36
2022-12-29T08:03:26.041Z,-1.39
2022-12-29T08:06:11.791Z,-1.50
2022-12-29T08:09:01.611Z,-1.36
2022-12-29T08:11:50.251Z,-1.26
2022-12-29T08:14:20.277Z,-1.17
2022-12-29T08:17:03.149Z,-1.06
2022-12-29T08:19:46.870Z,-1.04
2022-12-29T08:22:25.070Z,-1.19
2022-12-29T08:25:10.877Z,-1.11
2022-12-29T08:27:53.587Z,-1.07
2022-12-29T08:30:36.704Z,-0.96
2022-12-29T08:33:25.220Z,-0.86
2022-12-29T08:36:18.329Z,-0.71
2022-12-29T08:38:54.636Z,-0.65
2022-12-29T08:41:38.808Z,-0.59
2022-12-29T08:44:26.904Z,-0.47
2022-12-29T08:47:16.259Z,-0.35
2022-12-29T08:50:05.953Z,-0.37
2022-12-29T08:52:47.943Z,-0.31
2022-12-29T08:55:30.510Z,-0.15
2022-12-29T08:58:11.118Z,-0.28
2022-12-29T09:01:04.569Z,-0.34
2022-12-29T09:06:47.696Z,-0.25
2022-12-29T09:09:28.549Z,-0.43
2022-12-29T09:12:16.965Z,-0.29
2022-12-29T09:14:59.607Z,-0.23
2022-12-29T09:17:47.193Z,-0.28
2022-12-29T09:20:34.435Z,-0.14
2022-12-29T09:23:16.131Z,-0.16
2022-12-29T09:25:56.878Z,-0.16
2022-12-29T09:28:34.409Z,-0.15
2022-12-29T09:31:16.242Z,-0.12
2022-12-29T09:34:02.803Z,-0.16
2022-12-29T09:36:44.718Z,-0.17
2022-12-29T09:39:26.751Z,-0.08
2022-12-29T09:42:24.269Z,0.04
2022-12-29T09:45:13.138Z,-0.07
2022-12-29T09:47:54.168Z,-0.04
2022-12-29T09:50:47.831Z,0.01
2022-12-29T09:53:56.120Z,0.01
2022-12-29T09:56:30.189Z,0.11
2022-12-29T09:59:15.223Z,0.26
2022-12-29T10:01:59.138Z,0.26
2022-12-29T10:04:43.644Z,0.37
2022-12-29T10:07:34.689Z,0.31
2022-12-29T10:10:38.495Z,0.31
2022-12-29T10:13:37.891Z,0.34
2022-12-29T10:16:20.510Z,0.45
2022-12-29T10:19:14.194Z,0.54
2022-12-29T10:22:12.149Z,0.45
2022-12-29T10:24:57.693Z,0.37
2022-12-29T10:27:38.542Z,0.39
2022-12-29T10:30:21.563Z,0.18
2022-12-29T10:33:17.635Z,0.35
2022-12-29T10:35:56.598Z,0.55
2022-12-29T10:39:21.207Z,0.48
2022-12-29T10:42:20.281Z,0.45
2022-12-29T10:45:09.710Z,0.60
2022-12-29T10:47:56.859Z,0.49
2022-12-29T10:50:36.621Z,0.49
2022-12-29T10:53:26.690Z,0.45
2022-12-29T10:56:03.630Z,0.61
2022-12-29T10:58:48.072Z,0.66
2022-12-29T11:01:24.866Z,0.69
2022-12-29T11:04:17.776Z,0.78
2022-12-29T11:06:58.898Z,0.87
2022-12-29T11:09:42.468Z,0.89
2022-12-29T11:12:31.045Z,0.89
2022-12-29T11:15:20.036Z,0.95
2022-12-29T11:18:07.740Z,1.01
2022-12-29T11:21:13.737Z,1.03
2022-12-29T11:24:08.442Z,1.20
2022-12-29T11:26:49.056Z,1.14
2022-12-29T11:29:30.122Z,1.10
2022-12-29T11:32:32.033Z,1.11
2022-12-29T11:35:23.309Z,1.18
2022-12-29T11:38:06.775Z,1.15
2022-12-29T11:40:48.269Z,1.22
2022-12-29T11:43:39.229Z,1.26
2022-12-29T11:46:34.344Z,1.45
2022-12-29T11:49:24.415Z,1.47
2022-12-29T11:52:00.773Z,1.56
2022-12-29T11:54:46.838Z,1.60
2022-12-29T11:57:32.348Z,1.67
2022-12-29T12:00:28.984Z,1.63
2022-12-29T12:03:14.581Z,1.62
2022-12-29T12:06:03.084Z,1.83
2022-12-29T12:08:57.904Z,1.85
2022-12-29T12:11:46.573Z,1.97
2022-12-29T12:14:43.689Z,2.01
2022-12-29T12:18:10.652Z,1.86
2022-12-29T12:21:02.235Z,2.08
2022-12-29T12:23:43.401Z,1.80
2022-12-29T12:26:29.166Z,1.65
2022-12-29T12:29:12.481Z,1.66
2022-12-29T12:32:47.103Z,1.64
2022-12-29T12:35:51.781Z,1.60
2022-12-29T12:38:44.799Z,1.57
2022-12-29T12:41:53.198Z,1.51
2022-12-29T12:44:42.560Z,1.57
2022-12-29T12:47:41.940Z,1.63
2022-12-29T12:50:33.826Z,1.64
2022-12-29T12:53:46.645Z,1.69
2022-12-29T12:56:44.198Z,1.73
2022-12-29T12:59:57.809Z,1.65
2022-12-29T13:02:36.756Z,1.74
2022-12-29T13:05:28.647Z,1.83
2022-12-29T13:08:18.376Z,1.85
2022-12-29T13:11:06.023Z,1.91
2022-12-29T13:14:04.413Z,1.77
2022-12-29T13:16:57.932Z,1.74
2022-12-29T13:19:56.931Z,1.85
2022-12-29T13:22:53.864Z,1.79
2022-12-29T13:25:38.602Z,1.73
2022-12-29T13:28:22.064Z,1.40
2022-12-29T13:31:28.207Z,1.37
2022-12-29T13:34:15.750Z,1.26
2022-12-29T13:37:08.054Z,1.17
2022-12-29T13:40:26.263Z,1.11
2022-12-29T13:43:16.282Z,1.08
2022-12-29T13:46:02.602Z,1.03
2022-12-29T13:48:48.389Z,0.90
2022-12-29T13:51:29.637Z,1.02
2022-12-29T13:54:05.652Z,0.91
2022-12-29T13:56:55.501Z,0.77
2022-12-29T14:00:14.945Z,0.89
2022-12-29T14:03:10.653Z,0.97
2022-12-29T14:06:05.195Z,0.90
2022-12-29T14:08:43.512Z,0.95
2022-12-29T14:11:28.024Z,0.85
2022-12-29T14:14:29.728Z,0.66
2022-12-29T14:17:26.476Z,0.72
2022-12-29T14:19:59.689Z,0.74
2022-12-29T14:22:39.983Z,0.58
2022-12-29T14:25:48.085Z,0.52
2022-12-29T14:28:33.601Z,0.36
2022-12-29T14:31:27.249Z,0.23
2022-12-29T14:34:17.457Z,0.14
2022-12-29T14:37:20.664Z,0.18
2022-12-29T14:40:27.517Z,0.05
2022-12-29T14:43:26.910Z,-0.09
2022-12-29T14:46:18.018Z,-0.15
2022-12-29T14:49:02.299Z,-0.28
2022-12-29T14:51:43.638Z,-0.28
2022-12-29T14:54:45.392Z,-0.27
2022-12-29T14:57:28.418Z,-0.25
2022-12-29T15:00:17.257Z,-0.25
2022-12-29T15:03:12.367Z,-0.32
2022-12-29T15:06:12.742Z,-0.35
2022-12-29T15:09:20.759Z,-0.36
2022-12-29T15:12:20.585Z,-0.40
2022-12-29T15:15:04.228Z,-0.41
2022-12-29T15:17:43.068Z,-0.45
2022-12-29T15:20:39.702Z,-0.49
2022-12-29T15:23:18.408Z,-0.46
2022-12-29T15:26:11.781Z,-0.55
2022-12-29T15:28:59.948Z,-0.54
2022-12-29T15:31:59.772Z,-0.53
2022-12-29T15:34:36.144Z,-0.57
2022-12-29T15:37:28.932Z,-0.66
2022-12-29T15:40:09.254Z,-0.81
2022-12-29T15:43:10.988Z,-0.86
2022-12-29T15:45:43.696Z,-1.00
2022-12-29T15:48:30.114Z,-1.03
2022-12-29T15:51:06.450Z,-1.03
2022-12-29T15:53:43.874Z,-1.05
2022-12-29T15:56:23.821Z,-1.00
2022-12-29T15:59:04.611Z,-1.18
2022-12-29T16:01:47.051Z,-1.17
2022-12-29T16:04:29.498Z,-1.09
2022-12-29T16:07:10.562Z,-1.25
2022-12-29T16:10:03.305Z,-1.26
2022-12-29T16:12:47.350Z,-1.29
2022-12-29T16:15:31.485Z,-1.37
2022-12-29T16:18:07.883Z,-1.22
2022-12-29T16:20:52.728Z,-1.42
2022-12-29T16:23:36.565Z,-1.47
2022-12-29T16:26:26.896Z,-1.50
2022-12-29T16:29:16.168Z,-1.54
2022-12-29T16:32:04.275Z,-1.60
2022-12-29T16:34:56.931Z,-1.64
2022-12-29T16:37:38.587Z,-1.72
2022-12-29T16:40:27.361Z,-1.74
2022-12-29T16:43:03.616Z,-1.71
2022-12-29T16:45:48.991Z,-1.67
2022-12-29T16:48:54.581Z,-1.79
2022-12-29T16:51:49.045Z,-1.92
2022-12-29T16:54:42.768Z,-2.00
2022-12-29T16:57:17.956Z,-1.97
2022-12-29T16:59:57.355Z,-2.11
2022-12-29T17:02:31.880Z,-2.01
2022-12-29T17:05:10.955Z,-2.03
2022-12-29T17:07:48.822Z,-2.10
2022-12-29T17:10:41.000Z,-2.07
2022-12-29T17:13:28.415Z,-2.23
2022-12-29T17:16:08.443Z,-2.23
2022-12-29T17:18:49.588Z,-2.28
2022-12-29T17:21:27.377Z,-2.23
2022-12-29T17:24:06.805Z,-2.24
2022-12-29T17:26:49.589Z,-2.17
2022-12-29T17:29:45.142Z,-2.15
2022-12-29T17:32:29.565Z,-2.33
2022-12-29T17:35:09.197Z,-2.38
2022-12-29T17:37:47.533Z,-2.43
2022-12-29T17:40:30.935Z,-2.44
2022-12-29T17:43:21.032Z,-2.45
2022-12-29T17:46:08.561Z,-2.43
2022-12-29T17:48:53.888Z,-2.48
2022-12-29T17:51:36.431Z,-2.54
2022-12-29T17:54:34.199Z,-2.58
2022-12-29T17:57:17.538Z,-2.48
2022-12-29T18:00:02.141Z,-2.57
2022-12-29T18:03:10.107Z,-2.58
2022-12-29T18:05:50.680Z,-2.55
2022-12-29T18:08:39.393Z,-2.56
2022-12-29T18:11:36.206Z,-2.58
2022-12-29T18:14:32.111Z,-2.65
2022-12-29T18:17:06.895Z,-2.69
2022-12-29T18:19:49.274Z,-2.66
2022-12-29T18:22:31.598Z,-2.59
2022-12-29T18:25:28.183Z,-2.65
2022-12-29T18:28:06.502Z,-2.70
2022-12-29T18:30:44.581Z,-2.76
2022-12-29T18:33:28.565Z,-2.76
2022-12-29T18:36:11.629Z,-2.75
2022-12-29T18:38:50.827Z,-2.77
2022-12-29T18:41:35.222Z,-2.78
2022-12-29T18:44:21.319Z,-2.76
2022-12-29T18:47:08.093Z,-2.79
2022-12-29T18:49:55.173Z,-2.78
2022-12-29T18:52:36.051Z,-2.79
2022-12-29T18:55:15.559Z,-2.78
2022-12-29T18:57:55.503Z,-2.86
2022-12-29T19:00:38.897Z,-2.89
2022-12-29T19:03:36.100Z,-2.86
2022-12-29T19:06:13.265Z,-2.87
2022-12-29T19:08:49.591Z,-2.90
2022-12-29T19:11:30.868Z,-2.90
2022-12-29T19:14:21.183Z,-2.87
2022-12-29T19:16:54.661Z,-2.92
2022-12-29T19:19:29.986Z,-3.01
2022-12-29T19:22:11.153Z,-2.98
2022-12-29T19:24:43.415Z,-3.00
2022-12-29T19:27:24.503Z,-3.01
2022-12-29T19:30:04.229Z,-2.96
2022-12-29T19:32:48.513Z,-2.96
2022-12-29T19:35:32.282Z,-2.91
2022-12-29T19:38:10.596Z,-2.96
2022-12-29T19:40:53.842Z,-2.78
2022-12-29T19:43:28.987Z,-2.91
2022-12-29T19:46:17.826Z,-2.82
2022-12-29T19:48:59.180Z,-2.91
2022-12-29T19:51:37.551Z,-3.00
2022-12-29T19:54:17.632Z,-3.05
2022-12-29T19:56:55.078Z,-3.07
2022-12-29T19:59:38.517Z,-2.98
2022-12-29T20:02:29.322Z,-3.18
2022-12-29T20:05:11.188Z,-3.16
2022-12-29T20:07:48.915Z,-3.14
2022-12-29T20:10:30.383Z,-3.17
2022-12-29T20:13:17.997Z,-3.19
2022-12-29T20:16:11.969Z,-3.25
2022-12-29T20:18:47.098Z,-3.21
2022-12-29T20:21:32.220Z,-3.20
2022-12-29T20:24:09.852Z,-3.20
2022-12-29T20:26:49.894Z,-3.14
2022-12-29T20:29:29.576Z,-3.14
2022-12-29T20:32:11.540Z,-3.27
2022-12-29T20:35:07.137Z,-3.20
2022-12-29T20:37:51.152Z,-3.19
2022-12-29T20:40:27.820Z,-3.24
2022-12-29T20:43:07.975Z,-3.11
2022-12-29T20:45:51.191Z,-3.21
2022-12-29T20:48:35.913Z,-3.21
2022-12-29T20:52:04.938Z,-3.29
2022-12-29T20:54:58.980Z,-3.26
2022-12-29T20:57:57.587Z,-3.28
2022-12-29T21:00:46.309Z,-3.31
2022-12-29T21:03:30.669Z,-3.35
2022-12-29T21:06:18.579Z,-3.39
2022-12-29T21:09:09.925Z,-3.38
2022-12-29T21:11:47.815Z,-3.41
2022-12-29T21:14:28.332Z,-3.40
2022-12-29T21:17:16.763Z,-3.38
2022-12-29T21:19:55.016Z,-3.32
2022-12-29T21:22:33.606Z,-3.08
2022-12-29T21:25:11.816Z,-3.08
2022-12-29T21:27:50.250Z,-3.13
2022-12-29T21:30:40.609Z,-3.29
2022-12-29T21:33:38.501Z,-3.29
2022-12-29T21:36:16.550Z,-3.33
2022-12-29T21:38:54.495Z,-3.28
2022-12-29T21:41:35.820Z,-3.27
2022-12-29T21:44:33.092Z,-3.15
2022-12-29T21:47:19.282Z,-3.19
2022-12-29T21:49:56.273Z,-3.31
2022-12-29T21:52:35.433Z,-3.31
2022-12-29T21:55:23.171Z,-3.34
2022-12-29T21:58:23.009Z,-3.40
2022-12-29T22:01:22.381Z,-3.34
2022-12-29T22:04:14.418Z,-3.40
2022-12-29T22:07:08.230Z,-3.48
2022-12-29T22:10:10.397Z,-3.38
2022-12-29T22:13:03.835Z,-3.34
2022-12-29T22:15:54.236Z,-3.17
2022-12-29T22:18:40.955Z,-3.22
2022-12-29T22:21:29.615Z,-3.22
2022-12-29T22:24:12.312Z,-3.15
2022-12-29T22:27:02.293Z,-3.07
2022-12-29T22:29:42.214Z,-3.06
2022-12-29T22:32:29.289Z,-2.91
2022-12-29T22:35:12.491Z,-2.76
2022-12-29T22:37:52.524Z,-2.57
2022-12-29T22:40:36.172Z,-2.44
2022-12-29T22:43:13.595Z,-2.41
2022-12-29T22:46:14.822Z,-2.15
2022-12-29T22:49:02.121Z,-1.92
2022-12-29T22:51:57.306Z,-1.89
2022-12-29T22:54:37.432Z,-1.98
2022-12-29T22:57:21.454Z,-1.90
2022-12-29T22:59:59.881Z,-1.79
2022-12-29T23:02:49.079Z,-1.71
2022-12-29T23:05:27.567Z,-1.77
2022-12-29T23:08:13.976Z,-1.74
2022-12-29T23:10:55.582Z,-1.63
2022-12-29T23:13:45.220Z,-1.57
2022-12-29T23:16:27.313Z,-1.62
2022-12-29T23:19:10.960Z,-1.48
2022-12-29T23:21:49.553Z,-1.51
2022-12-29T23:24:34.888Z,-1.47
2022-12-29T23:27:12.719Z,-1.40
2022-12-29T23:29:58.816Z,-1.33
2022-12-29T23:32:50.232Z,-1.24
2022-12-29T23:35:39.559Z,-1.22
2022-12-29T23:38:29.228Z,-1.23
2022-12-29T23:41:07.653Z,-1.11
2022-12-29T23:43:45.612Z,-1.03
2022-12-29T23:46:25.221Z,-1.06
2022-12-29T23:49:12.431Z,-0.95
2022-12-29T23:51:55.571Z,-0.91
2022-12-29T23:54:40.448Z,-0.77
2022-12-29T23:57:31.473Z,-0.95
